Time;durP1;ratioP1;P1;durP2;ratioP2;P2;SDS_P1;SDS_P2;PMS_P1;PMS_P2;Temp;Humidity;BMP_temperature;BMP_pressure;BME280_temperature;BME280_humidity;BME280_pressure;Samples;Min_cycle;Max_cycle;Signal;HPM_P1;HPM_P2
2021/12/07 00:00:01;;;;;;;;;;;;;;;29.86;21.06;96769.53;172034;28;1059;-54
2021/12/07 00:00:10;;;;;;;;;;;;;;;29.88;21.26;96769.38;172540;28;991;-55
2021/12/07 00:00:16;;;;;;;;;;;;;;;29.87;21.07;96768.53;171835;28;940;-53
2021/12/07 00:00:21;;;;;;;;;;;;;;;29.89;21.20;96768.38;172076;28;1111;-54
2021/12/07 00:00:27;;;;;;;;;;;;;;;29.90;21.13;96772.69;172540;28;984;-54
2021/12/07 00:00:32;;;;;;;;;;;;;;;29.89;20.99;96771.84;171983;28;1645;-53
2021/12/07 00:00:37;;;;;;;;;;;;;;;29.89;21.30;96771.84;172122;28;889;-54
2021/12/07 00:00:43;;;;;;;;;;;;;;;29.89;21.38;96769.19;171934;28;893;-54
2021/12/07 00:00:48;;;;;;;;;;;;;;;29.85;21.06;96767.84;171914;28;916;-54
2021/12/07 00:00:53;;;;;;;;;;;;;;;29.89;21.24;96773.69;171929;28;786;-54
2021/12/07 00:00:59;;;;;;;;;;;;;;;29.88;21.13;96770.19;172397;28;1218;-54
2021/12/07 00:01:04;;;;;;;;;;;;;;;29.87;21.12;96768.53;172419;28;1205;-55
2021/12/07 00:01:09;;;;;;;;;;;;;;;29.83;20.96;96769.03;172141;28;4521;-54
2021/12/07 00:01:14;;;;;;;;;;;;;;;29.83;21.02;96764.53;172538;28;872;-55
2021/12/07 00:01:19;;;;;;;;;;;;;;;29.87;21.12;96767.69;172383;28;1123;-54
2021/12/07 00:01:25;;;;;;;;;;;;;;;29.88;21.13;96772.03;172696;28;976;-54
2021/12/07 00:01:30;;;;;;;;;;;;;;;29.88;21.23;96770.19;172321;28;1031;-54
2021/12/07 00:01:36;;;;;;;;;;;;;;;29.89;21.10;96771.03;172516;28;814;-54
2021/12/07 00:01:41;;;;;;;;;;;;;;;29.86;21.01;96771.34;172470;28;841;-54
2021/12/07 00:01:47;;;;;;;;;;;;;;;29.85;21.18;96765.19;171117;28;1336;-55
2021/12/07 00:01:54;;;;;;;;;;;;;;;29.85;20.92;96769.69;171997;28;987;-55
2021/12/07 00:02:06;;;;;;;;;;;;;;;29.85;20.94;96775.00;170497;29;861;-54
2021/12/07 00:02:12;;;;;;;;;;;;;;;29.89;21.07;96768.38;171196;28;837;-54
2021/12/07 00:02:17;;;;;;;;;;;;;;;29.87;21.06;96765.03;171058;28;802;-54
2021/12/07 00:02:22;;;;;;;;;;;;;;;29.87;20.86;96768.53;170605;29;861;-55
2021/12/07 00:02:27;;;;;;;;;;;;;;;29.86;21.29;96766.00;170601;29;786;-54
2021/12/07 00:02:33;;;;;;;;;;;;;;;29.85;21.07;96767.84;170922;28;1001;-55
2021/12/07 00:02:39;;;;;;;;;;;;;;;29.88;21.01;96774.69;171310;28;929;-54
2021/12/07 00:02:45;;;;;;;;;;;;;;;29.89;21.29;96771.84;171036;28;1324;-55
2021/12/07 00:02:50;;;;;;;;;;;;;;;29.89;20.99;96769.19;171327;28;1356;-54
2021/12/07 00:02:55;;;;;;;;;;;;;;;29.88;21.08;96769.38;171278;28;1293;-54
2021/12/07 00:03:01;;;;;;;;;;;;;;;29.83;21.19;96764.53;171124;28;786;-55
2021/12/07 00:03:06;;;;;;;;;;;;;;;29.82;21.33;96770.03;171267;28;1147;-54
2021/12/07 00:03:11;;;;;;;;;;;;;;;29.83;21.26;96769.03;171254;28;1009;-53
2021/12/07 00:03:16;;;;;;;;;;;;;;;29.84;21.25;96766.19;171089;28;1108;-54
2021/12/07 00:03:21;;;;;;;;;;;;;;;29.85;21.05;96762.53;171324;28;905;-54
2021/12/07 00:03:27;;;;;;;;;;;;;;;29.87;21.18;96763.22;171573;28;846;-54
2021/12/07 00:03:32;;;;;;;;;;;;;;;29.85;21.02;96762.53;171131;28;1119;-54
2021/12/07 00:03:37;;;;;;;;;;;;;;;29.86;21.29;96766.88;171191;28;864;-53
2021/12/07 00:03:42;;;;;;;;;;;;;;;29.86;21.11;96766.88;171161;28;1111;-54
2021/12/07 00:03:48;;;;;;;;;;;;;;;29.82;20.90;96760.22;171269;28;794;-53
2021/12/07 00:03:53;;;;;;;;;;;;;;;29.85;21.06;96764.38;170963;28;1160;-54
2021/12/07 00:03:58;;;;;;;;;;;;;;;29.88;21.17;96769.38;171140;28;1028;-54
2021/12/07 00:04:03;;;;;;;;;;;;;;;29.84;21.33;96765.38;171224;28;1123;-54
2021/12/07 00:04:09;;;;;;;;;;;;;;;29.85;21.34;96756.38;171359;28;881;-54
2021/12/07 00:04:14;;;;;;;;;;;;;;;29.83;21.06;96761.03;171164;28;850;-55
2021/12/07 00:04:19;;;;;;;;;;;;;;;29.84;21.41;96763.53;171411;28;1210;-55
2021/12/07 00:04:24;;;;;;;;;;;;;;;29.83;21.24;96761.88;171025;28;1440;-54
2021/12/07 00:04:29;;;;;;;;;;;;;;;29.84;21.36;96760.88;170254;28;1379;-54
2021/12/07 00:04:35;;;;;;;;;;;;;;;29.82;21.17;96764.72;170810;28;853;-54
2021/12/07 00:04:40;;;;;;;;;;;;;;;29.82;21.33;96765.53;170789;28;1115;-55
2021/12/07 00:04:45;;;;;;;;;;;;;;;29.81;21.39;96768.38;170570;28;1765;-54
2021/12/07 00:04:50;;;;;;;;;;;;;;;29.81;21.16;96768.38;170931;28;1019;-54
2021/12/07 00:04:55;;;;;;;;;;;;;;;29.82;21.05;96757.56;171222;28;977;-54
2021/12/07 00:05:01;;;;;;;;;;;;;;;29.86;21.06;96763.34;170925;28;1317;-54
2021/12/07 00:05:06;;;;;;;;;;;;;;;29.87;21.11;96767.69;170885;28;1697;-54
2021/12/07 00:05:11;;;;;;;;;;;;;;;29.87;21.14;96765.03;170235;28;4295;-54
2021/12/07 00:05:16;;;;;;;;;;;;;;;29.88;21.35;96762.22;171006;28;1112;-54
2021/12/07 00:05:21;;;;;;;;;;;;;;;29.87;21.29;96765.88;171388;28;996;-54
2021/12/07 00:05:27;;;;;;;;;;;;;;;29.86;21.04;96766.88;171116;28;972;-55
2021/12/07 00:05:32;;;;;;;;;;;;;;;29.88;20.86;96766.69;171307;28;751;-54
2021/12/07 00:05:37;;;;;;;;;;;;;;;29.89;21.08;96760.38;171248;28;964;-54
2021/12/07 00:05:42;;;;;;;;;;;;;;;29.88;21.00;96756.91;170465;29;912;-55
2021/12/07 00:05:47;;;;;;;;;;;;;;;29.90;21.06;96762.03;170701;29;820;-54
2021/12/07 00:05:53;;;;;;;;;;;;;;;29.90;21.22;96759.38;171048;28;989;-54
2021/12/07 00:05:58;;;;;;;;;;;;;;;29.89;21.19;96758.56;171242;28;992;-54
2021/12/07 00:06:03;;;;;;;;;;;;;;;29.91;21.04;96764.53;170913;28;999;-54
2021/12/07 00:06:08;;;;;;;;;;;;;;;29.91;21.15;96761.03;170642;29;830;-54
2021/12/07 00:06:14;;;;;;;;;;;;;;;29.91;21.13;96761.03;170628;28;1181;-54
2021/12/07 00:06:19;;;;;;;;;;;;;;;29.89;20.85;96755.06;171432;28;826;-55
2021/12/07 00:06:24;;;;;;;;;;;;;;;29.90;21.16;96760.22;171283;28;752;-54
2021/12/07 00:06:29;;;;;;;;;;;;;;;29.91;21.07;96763.69;171274;28;1277;-54
2021/12/07 00:06:35;;;;;;;;;;;;;;;29.92;21.09;96760.03;171202;28;877;-54
2021/12/07 00:06:40;;;;;;;;;;;;;;;29.92;21.06;96760.88;171190;28;1200;-54
2021/12/07 00:06:45;;;;;;;;;;;;;;;29.92;21.10;96754.72;171405;28;841;-55
2021/12/07 00:06:50;;;;;;;;;;;;;;;29.91;21.36;96761.03;171252;28;1170;-54
2021/12/07 00:06:56;;;;;;;;;;;;;;;29.89;21.36;96760.38;171218;28;846;-54
2021/12/07 00:07:01;;;;;;;;;;;;;;;29.87;21.26;96762.38;171082;28;994;-54
2021/12/07 00:07:06;;;;;;;;;;;;;;;29.85;21.24;96765.19;170578;29;747;-55
2021/12/07 00:07:11;;;;;;;;;;;;;;;29.83;21.21;96761.88;170664;29;1158;-54
2021/12/07 00:07:17;;;;;;;;;;;;;;;29.82;21.03;96754.06;171310;28;1460;-54
2021/12/07 00:07:22;;;;;;;;;;;;;;;29.85;21.31;96759.88;171311;28;834;-55
2021/12/07 00:07:28;;;;;;;;;;;;;;;29.87;21.30;96765.03;171197;28;1103;-54
2021/12/07 00:07:33;;;;;;;;;;;;;;;29.86;21.16;96766.00;171213;28;806;-54
2021/12/07 00:07:39;;;;;;;;;;;;;;;29.87;21.07;96757.91;171190;28;1061;-54
2021/12/07 00:07:44;;;;;;;;;;;;;;;29.88;21.19;96756.06;171377;28;810;-54
2021/12/07 00:07:49;;;;;;;;;;;;;;;29.89;21.00;96757.72;171030;28;1362;-55
2021/12/07 00:07:56;;;;;;;;;;;;;;;29.87;20.88;96755.25;170507;28;2285;-54
2021/12/07 00:08:01;;;;;;;;;;;;;;;29.83;21.20;96755.72;171292;28;1805;-54
2021/12/07 00:08:06;;;;;;;;;;;;;;;29.86;21.08;96755.38;171218;28;980;-55
2021/12/07 00:08:11;;;;;;;;;;;;;;;29.82;21.19;96754.91;171135;28;1166;-54
2021/12/07 00:08:17;;;;;;;;;;;;;;;29.82;20.93;96751.41;171406;28;810;-54
2021/12/07 00:08:22;;;;;;;;;;;;;;;29.87;21.14;96755.25;171244;28;952;-54
2021/12/07 00:08:28;;;;;;;;;;;;;;;29.83;20.88;96761.88;171251;28;1268;-54
2021/12/07 00:08:34;;;;;;;;;;;;;;;29.81;21.00;96752.41;171147;28;1646;-54
2021/12/07 00:08:42;;;;;;;;;;;;;;;29.81;21.25;96757.72;171204;28;904;-54
2021/12/07 00:08:51;;;;;;;;;;;;;;;29.83;21.39;96755.72;171267;28;1110;-55
2021/12/07 00:08:56;;;;;;;;;;;;;;;29.83;21.24;96753.06;171309;28;873;-54
2021/12/07 00:09:06;;;;;;;;;;;;;;;29.85;20.89;96759.88;171129;28;1154;-54
2021/12/07 00:09:12;;;;;;;;;;;;;;;29.88;21.10;96756.06;171791;28;4235;-54
2021/12/07 00:09:18;;;;;;;;;;;;;;;29.89;21.06;96752.41;171856;28;799;-53
2021/12/07 00:09:23;;;;;;;;;;;;;;;29.88;21.06;96758.72;172133;28;1270;-54
2021/12/07 00:09:28;;;;;;;;;;;;;;;29.90;21.17;96756.72;172500;28;987;-55
2021/12/07 00:09:33;;;;;;;;;;;;;;;29.89;20.82;96755.91;172400;28;1204;-54
2021/12/07 00:09:38;;;;;;;;;;;;;;;29.88;20.90;96750.75;172459;28;873;-55
2021/12/07 00:09:49;;;;;;;;;;;;;;;29.87;21.04;96762.38;172463;28;837;-54
2021/12/07 00:09:54;;;;;;;;;;;;;;;29.87;21.30;96755.25;172594;28;889;-54
2021/12/07 00:09:59;;;;;;;;;;;;;;;29.89;20.89;96755.06;172395;28;1138;-54
2021/12/07 00:10:05;;;;;;;;;;;;;;;29.88;21.28;96756.91;172561;28;731;-55
2021/12/07 00:10:10;;;;;;;;;;;;;;;29.86;21.08;96750.94;172566;28;805;-55
2021/12/07 00:10:16;;;;;;;;;;;;;;;29.87;21.01;96751.75;171748;28;1000;-54
2021/12/07 00:10:21;;;;;;;;;;;;;;;29.88;21.02;96750.75;171847;28;1119;-54
2021/12/07 00:10:26;;;;;;;;;;;;;;;29.88;21.36;96754.25;171803;28;859;-55
2021/12/07 00:10:31;;;;;;;;;;;;;;;29.89;21.13;96755.06;171647;28;842;-54
2021/12/07 00:10:38;;;;;;;;;;;;;;;29.89;21.30;96755.91;171067;28;1902;-55
2021/12/07 00:10:43;;;;;;;;;;;;;;;29.89;21.03;96752.41;171131;28;845;-54
2021/12/07 00:10:50;;;;;;;;;;;;;;;29.85;21.01;96756.38;171525;28;1477;-54
2021/12/07 00:10:56;;;;;;;;;;;;;;;29.83;21.21;96756.56;171536;28;983;-54
2021/12/07 00:11:01;;;;;;;;;;;;;;;29.81;21.06;96758.56;171616;28;999;-55
2021/12/07 00:11:06;;;;;;;;;;;;;;;29.82;21.31;96752.25;171994;28;853;-55
2021/12/07 00:11:13;;;;;;;;;;;;;;;29.85;21.02;96756.38;171293;28;1344;-54
2021/12/07 00:11:18;;;;;;;;;;;;;;;29.85;20.82;96754.56;171290;28;836;-55
2021/12/07 00:11:24;;;;;;;;;;;;;;;29.88;21.17;96753.41;171360;28;1075;-55
2021/12/07 00:11:29;;;;;;;;;;;;;;;29.88;21.29;96756.06;171096;28;889;-54
2021/12/07 00:11:34;;;;;;;;;;;;;;;29.88;21.08;96753.41;171185;28;1095;-55
2021/12/07 00:11:39;;;;;;;;;;;;;;;29.90;21.05;96756.72;171070;28;810;-53
2021/12/07 00:11:45;;;;;;;;;;;;;;;29.91;20.82;96755.72;171161;28;1181;-54
2021/12/07 00:11:50;;;;;;;;;;;;;;;29.91;21.24;96761.03;171395;28;1051;-54
2021/12/07 00:11:56;;;;;;;;;;;;;;;29.91;20.86;96755.72;171084;28;1039;-54
2021/12/07 00:12:04;;;;;;;;;;;;;;;29.91;21.22;96758.38;171239;28;1007;-55
2021/12/07 00:12:09;;;;;;;;;;;;;;;29.89;21.01;96755.91;170639;28;1263;-54
2021/12/07 00:12:14;;;;;;;;;;;;;;;29.87;20.98;96757.06;170498;29;810;-54
2021/12/07 00:12:19;;;;;;;;;;;;;;;29.87;21.16;96751.75;170922;28;1182;-55
2021/12/07 00:12:33;;;;;;;;;;;;;;;29.90;21.05;96751.41;171285;28;880;-54
2021/12/07 00:12:39;;;;;;;;;;;;;;;29.89;21.04;96757.72;171194;28;862;-54
2021/12/07 00:12:45;;;;;;;;;;;;;;;29.86;21.09;96752.72;171144;28;1137;-54
2021/12/07 00:12:51;;;;;;;;;;;;;;;29.88;21.14;96758.72;171350;28;1175;-54
2021/12/07 00:12:57;;;;;;;;;;;;;;;29.90;21.01;96756.72;171138;28;1130;-54
2021/12/07 00:13:02;;;;;;;;;;;;;;;29.90;20.85;96757.56;171329;28;1090;-55
2021/12/07 00:13:09;;;;;;;;;;;;;;;29.90;21.22;96751.41;170202;28;4370;-55
2021/12/07 00:13:15;;;;;;;;;;;;;;;29.84;20.93;96757.38;171147;28;853;-54
2021/12/07 00:13:21;;;;;;;;;;;;;;;29.85;21.23;96759.88;171244;28;1387;-54
2021/12/07 00:13:30;;;;;;;;;;;;;;;29.87;20.96;96760.56;171243;28;802;-54
2021/12/07 00:13:38;;;;;;;;;;;;;;;29.88;21.38;96759.56;170629;28;885;-54
2021/12/07 00:13:43;;;;;;;;;;;;;;;29.87;21.17;96755.25;170471;28;1118;-55
2021/12/07 00:13:48;;;;;;;;;;;;;;;29.89;20.96;96760.38;170728;29;894;-55
2021/12/07 00:13:54;;;;;;;;;;;;;;;29.87;20.86;96747.28;170779;28;1115;-54
2021/12/07 00:13:59;;;;;;;;;;;;;;;29.84;21.27;96754.72;171216;28;814;-54
2021/12/07 00:14:21;;;;;;;;;;;;;;;29.83;21.33;96751.25;170742;28;1024;-54
2021/12/07 00:14:33;;;;;;;;;;;;;;;29.85;21.13;96753.72;170146;28;1979;-53
2021/12/07 00:14:41;;;;;;;;;;;;;;;29.84;21.14;96758.22;170563;28;816;-55
2021/12/07 00:14:46;;;;;;;;;;;;;;;29.87;21.19;96751.75;171014;28;1448;-54
2021/12/07 00:15:00;;;;;;;;;;;;;;;29.85;20.84;96751.91;170838;28;1220;-55
2021/12/07 00:15:06;;;;;;;;;;;;;;;29.85;21.03;96753.72;171004;28;1027;-55
2021/12/07 00:15:14;;;;;;;;;;;;;;;29.82;21.09;96764.72;171260;28;790;-54
2021/12/07 00:15:22;;;;;;;;;;;;;;;29.81;20.99;96757.72;171230;28;1209;-54
2021/12/07 00:15:30;;;;;;;;;;;;;;;29.81;21.10;96758.56;171138;28;1145;-55
2021/12/07 00:15:36;;;;;;;;;;;;;;;29.83;21.18;96755.72;170453;28;1641;-55
2021/12/07 00:15:41;;;;;;;;;;;;;;;29.84;21.12;96758.22;170948;28;961;-55
2021/12/07 00:15:47;;;;;;;;;;;;;;;29.85;21.11;96756.38;172542;28;814;-54
2021/12/07 00:15:52;;;;;;;;;;;;;;;29.87;21.05;96754.41;172401;28;1158;-55
2021/12/07 00:15:57;;;;;;;;;;;;;;;29.88;21.13;96756.06;172514;28;825;-55
2021/12/07 00:16:09;;;;;;;;;;;;;;;29.88;20.86;96758.72;172502;28;1032;-55
2021/12/07 00:16:14;;;;;;;;;;;;;;;29.88;20.81;96759.56;172509;28;1098;-53
2021/12/07 00:16:19;;;;;;;;;;;;;;;29.90;21.01;96756.72;172545;28;813;-55
2021/12/07 00:16:25;;;;;;;;;;;;;;;29.90;21.08;96764.69;172607;28;770;-54
2021/12/07 00:16:30;;;;;;;;;;;;;;;29.86;21.02;96755.38;172495;28;984;-55
2021/12/07 00:16:35;;;;;;;;;;;;;;;29.86;21.35;96756.25;172496;28;889;-55
2021/12/07 00:16:41;;;;;;;;;;;;;;;29.85;20.89;96751.06;172376;28;1066;-54
2021/12/07 00:16:46;;;;;;;;;;;;;;;29.88;21.10;96756.06;172446;28;1040;-55
2021/12/07 00:16:52;;;;;;;;;;;;;;;29.88;20.95;96758.72;172569;28;965;-55
2021/12/07 00:16:57;;;;;;;;;;;;;;;29.90;21.26;96757.56;172559;28;802;-54
2021/12/07 00:17:03;;;;;;;;;;;;;;;29.90;21.18;96762.88;172395;28;1138;-54
2021/12/07 00:17:08;;;;;;;;;;;;;;;29.91;21.04;96764.53;171994;28;4266;-54
2021/12/07 00:17:13;;;;;;;;;;;;;;;29.92;21.23;96760.03;172390;28;1035;-54
2021/12/07 00:17:19;;;;;;;;;;;;;;;29.93;21.13;96759.03;172575;28;901;-54
2021/12/07 00:17:24;;;;;;;;;;;;;;;29.89;21.01;96757.72;172556;28;1126;-54
2021/12/07 00:17:29;;;;;;;;;;;;;;;29.91;21.03;96761.03;172442;28;880;-54
2021/12/07 00:17:34;;;;;;;;;;;;;;;29.86;21.23;96758.91;172452;28;908;-55
2021/12/07 00:17:40;;;;;;;;;;;;;;;29.89;20.96;96763.03;172388;28;1127;-53
2021/12/07 00:17:45;;;;;;;;;;;;;;;29.88;21.06;96762.22;172127;28;963;-54
2021/12/07 00:17:50;;;;;;;;;;;;;;;29.91;21.07;96758.38;171275;28;1169;-54
2021/12/07 00:17:55;;;;;;;;;;;;;;;29.92;21.28;96760.88;171350;28;822;-54
2021/12/07 00:18:01;;;;;;;;;;;;;;;29.92;21.30;96760.03;171181;28;1119;-54
2021/12/07 00:18:06;;;;;;;;;;;;;;;29.92;20.86;96760.03;171292;28;805;-54
2021/12/07 00:18:11;;;;;;;;;;;;;;;29.89;21.31;96758.56;171170;28;1154;-54
2021/12/07 00:18:16;;;;;;;;;;;;;;;29.89;21.04;96757.72;171195;28;795;-55
2021/12/07 00:18:21;;;;;;;;;;;;;;;29.88;20.88;96759.56;171298;28;929;-54
2021/12/07 00:18:27;;;;;;;;;;;;;;;29.88;21.17;96758.72;171189;28;1170;-54
2021/12/07 00:18:32;;;;;;;;;;;;;;;29.86;21.00;96758.91;171209;28;806;-54
2021/12/07 00:18:37;;;;;;;;;;;;;;;29.87;20.95;96763.22;171266;28;1201;-54
2021/12/07 00:18:43;;;;;;;;;;;;;;;29.90;20.80;96762.03;171210;28;874;-54
2021/12/07 00:18:48;;;;;;;;;;;;;;;29.90;21.04;96762.88;171322;28;1058;-54
2021/12/07 00:18:53;;;;;;;;;;;;;;;29.88;21.20;96753.41;171443;28;723;-54
2021/12/07 00:18:58;;;;;;;;;;;;;;;29.88;21.02;96762.22;171171;28;1173;-54
2021/12/07 00:19:04;;;;;;;;;;;;;;;29.87;21.01;96763.22;171370;28;885;-54
2021/12/07 00:19:09;;;;;;;;;;;;;;;29.89;20.91;96763.88;171239;28;869;-55
2021/12/07 00:19:15;;;;;;;;;;;;;;;29.90;20.92;96762.88;170609;28;917;-54
2021/12/07 00:19:20;;;;;;;;;;;;;;;29.91;21.15;96764.53;170743;29;873;-53
2021/12/07 00:19:25;;;;;;;;;;;;;;;29.88;21.14;96774.69;171045;28;957;-53
2021/12/07 00:19:30;;;;;;;;;;;;;;;29.86;20.81;96761.56;171319;28;898;-54
2021/12/07 00:19:36;;;;;;;;;;;;;;;29.85;21.14;96764.38;171204;28;999;-54
2021/12/07 00:19:41;;;;;;;;;;;;;;;29.78;20.96;96761.53;171085;28;1004;-54
2021/12/07 00:19:47;;;;;;;;;;;;;;;29.79;20.96;96767.72;171335;28;1102;-54
2021/12/07 00:19:52;;;;;;;;;;;;;;;29.78;21.22;96761.53;171407;28;905;-54
2021/12/07 00:19:57;;;;;;;;;;;;;;;29.81;21.00;96765.72;171101;28;1160;-55
2021/12/07 00:20:07;;;;;;;;;;;;;;;29.83;20.85;96771.69;171442;28;802;-54
2021/12/07 00:20:19;;;;;;;;;;;;;;;29.85;21.07;96764.38;170972;28;1161;-54
2021/12/07 00:20:24;;;;;;;;;;;;;;;29.84;20.99;96771.50;170986;28;1123;-55
2021/12/07 00:20:29;;;;;;;;;;;;;;;29.83;21.17;96769.84;171271;28;939;-55
2021/12/07 00:20:34;;;;;;;;;;;;;;;29.80;20.93;96764.88;171148;28;1063;-54
2021/12/07 00:20:40;;;;;;;;;;;;;;;29.82;21.04;96762.03;171136;28;901;-54
2021/12/07 00:20:45;;;;;;;;;;;;;;;29.82;20.99;96776.16;171306;28;1110;-55
2021/12/07 00:20:50;;;;;;;;;;;;;;;29.83;21.06;96766.38;171272;28;985;-54
2021/12/07 00:20:55;;;;;;;;;;;;;;;29.86;21.33;96774.00;171247;28;882;-54
2021/12/07 00:21:01;;;;;;;;;;;;;;;29.87;20.87;96767.69;170801;28;1148;-54
2021/12/07 00:21:06;;;;;;;;;;;;;;;29.84;21.20;96760.03;171418;28;906;-55
2021/12/07 00:21:11;;;;;;;;;;;;;;;29.83;21.15;96769.03;170121;28;4383;-54
2021/12/07 00:21:17;;;;;;;;;;;;;;;29.81;21.13;96768.38;170754;29;1005;-54
2021/12/07 00:21:22;;;;;;;;;;;;;;;29.77;21.10;96767.03;171016;28;1147;-54
2021/12/07 00:21:27;;;;;;;;;;;;;;;29.77;21.00;96764.38;171250;28;933;-54
2021/12/07 00:21:32;;;;;;;;;;;;;;;29.77;21.13;96767.03;171188;28;1150;-53
2021/12/07 00:21:38;;;;;;;;;;;;;;;29.77;21.27;96772.34;171199;28;764;-55
2021/12/07 00:21:43;;;;;;;;;;;;;;;29.77;21.16;96767.84;171260;28;1492;-54
2021/12/07 00:21:48;;;;;;;;;;;;;;;29.80;21.34;96770.19;171468;28;830;-55
2021/12/07 00:21:54;;;;;;;;;;;;;;;29.81;20.90;96768.38;171173;28;866;-54
2021/12/07 00:21:59;;;;;;;;;;;;;;;29.82;21.15;96770.84;171329;28;1150;-54
2021/12/07 00:22:05;;;;;;;;;;;;;;;29.85;21.05;96772.34;171233;28;1106;-55
2021/12/07 00:22:10;;;;;;;;;;;;;;;29.88;21.29;96772.03;170623;28;1075;-54
2021/12/07 00:22:15;;;;;;;;;;;;;;;29.87;21.26;96770.38;170794;29;892;-54
2021/12/07 00:22:20;;;;;;;;;;;;;;;29.87;20.95;96773.03;170950;28;1222;-54
2021/12/07 00:22:25;;;;;;;;;;;;;;;29.86;20.92;96766.00;171205;28;831;-54
2021/12/07 00:22:31;;;;;;;;;;;;;;;29.87;21.01;96773.03;171309;28;1007;-54
2021/12/07 00:22:36;;;;;;;;;;;;;;;29.86;21.12;96766.00;171179;28;984;-54
2021/12/07 00:22:41;;;;;;;;;;;;;;;29.83;21.30;96767.19;171160;28;824;-55
2021/12/07 00:22:47;;;;;;;;;;;;;;;29.86;21.06;96776.66;170744;28;1067;-54
2021/12/07 00:22:54;;;;;;;;;;;;;;;29.87;20.93;96767.69;170473;28;1438;-54
2021/12/07 00:23:00;;;;;;;;;;;;;;;29.84;21.01;96771.50;170711;28;988;-54
2021/12/07 00:23:06;;;;;;;;;;;;;;;29.81;21.21;96771.03;171285;28;941;-54
2021/12/07 00:23:11;;;;;;;;;;;;;;;29.83;21.11;96775.16;171260;28;818;-55
2021/12/07 00:23:16;;;;;;;;;;;;;;;29.86;21.12;96776.66;171332;28;886;-54
2021/12/07 00:23:22;;;;;;;;;;;;;;;29.87;21.23;96775.69;171231;28;1007;-54
2021/12/07 00:23:27;;;;;;;;;;;;;;;29.87;21.04;96773.03;171195;28;871;-54
2021/12/07 00:23:32;;;;;;;;;;;;;;;29.88;21.11;96775.50;171204;28;1234;-55
2021/12/07 00:23:37;;;;;;;;;;;;;;;29.87;21.14;96779.16;171245;28;854;-54
2021/12/07 00:23:43;;;;;;;;;;;;;;;29.85;21.29;96775.00;171170;28;1113;-54
2021/12/07 00:23:48;;;;;;;;;;;;;;;29.81;21.32;96773.69;171389;28;857;-54
2021/12/07 00:23:53;;;;;;;;;;;;;;;29.75;21.21;96776.00;171205;28;1173;-54
2021/12/07 00:23:58;;;;;;;;;;;;;;;29.77;21.35;96772.34;171353;28;1041;-54
2021/12/07 00:24:04;;;;;;;;;;;;;;;29.80;21.18;96774.69;171264;28;976;-54
2021/12/07 00:24:10;;;;;;;;;;;;;;;29.82;21.14;96776.16;170627;28;849;-54
2021/12/07 00:24:16;;;;;;;;;;;;;;;29.84;21.31;96778.66;170750;28;861;-54
2021/12/07 00:24:21;;;;;;;;;;;;;;;29.85;20.94;96770.50;170580;28;833;-54
2021/12/07 00:24:26;;;;;;;;;;;;;;;29.85;20.86;96772.34;170539;28;898;-54
2021/12/07 00:24:32;;;;;;;;;;;;;;;29.84;21.14;96774.16;170176;28;1578;-53
2021/12/07 00:24:37;;;;;;;;;;;;;;;29.84;21.09;96776.00;170720;28;1876;-54
2021/12/07 00:24:42;;;;;;;;;;;;;;;29.85;20.90;96777.66;170910;28;1008;-54
2021/12/07 00:24:47;;;;;;;;;;;;;;;29.84;21.25;96779.47;171206;28;691;-54
2021/12/07 00:24:53;;;;;;;;;;;;;;;29.87;20.92;96778.34;170895;28;1368;-54
2021/12/07 00:24:58;;;;;;;;;;;;;;;29.86;21.24;96782.81;170366;28;1614;-54
2021/12/07 00:25:03;;;;;;;;;;;;;;;29.84;21.12;96784.81;170743;28;1037;-54
2021/12/07 00:25:08;;;;;;;;;;;;;;;29.83;20.96;96774.34;171222;28;988;-54
2021/12/07 00:25:14;;;;;;;;;;;;;;;29.78;21.25;96777.47;170872;28;4256;-55
2021/12/07 00:25:19;;;;;;;;;;;;;;;29.78;21.29;96785.47;171254;28;1213;-54
2021/12/07 00:25:24;;;;;;;;;;;;;;;29.80;21.14;96774.69;170789;28;1906;-54
2021/12/07 00:25:29;;;;;;;;;;;;;;;29.81;21.12;96771.84;171140;28;818;-54
2021/12/07 00:25:35;;;;;;;;;;;;;;;29.84;21.26;96776.00;171908;28;842;-54
2021/12/07 00:25:40;;;;;;;;;;;;;;;29.84;21.19;96782.13;171483;28;1192;-54
2021/12/07 00:25:45;;;;;;;;;;;;;;;29.85;21.04;96778.47;171285;28;932;-54
2021/12/07 00:25:51;;;;;;;;;;;;;;;29.82;20.88;96773.50;171391;28;1095;-54
2021/12/07 00:25:56;;;;;;;;;;;;;;;29.79;21.12;96781.81;171213;28;848;-54
2021/12/07 00:26:01;;;;;;;;;;;;;;;29.80;21.18;96778.16;171160;28;1046;-55
2021/12/07 00:26:06;;;;;;;;;;;;;;;29.81;21.02;96782.47;170655;28;1107;-55
2021/12/07 00:26:12;;;;;;;;;;;;;;;29.85;21.08;96780.31;170271;28;1587;-54
2021/12/07 00:26:17;;;;;;;;;;;;;;;29.84;21.00;96783.97;171202;28;984;-55
2021/12/07 00:26:22;;;;;;;;;;;;;;;29.81;20.85;96779.81;171351;28;723;-55
2021/12/07 00:26:27;;;;;;;;;;;;;;;29.84;21.00;96783.97;171132;28;1259;-54
2021/12/07 00:26:33;;;;;;;;;;;;;;;29.81;21.19;96779.81;171252;28;886;-54
2021/12/07 00:26:38;;;;;;;;;;;;;;;29.85;21.18;96782.97;171124;28;1193;-54
2021/12/07 00:26:43;;;;;;;;;;;;;;;29.86;21.14;96781.97;171217;28;953;-55
2021/12/07 00:26:48;;;;;;;;;;;;;;;29.85;21.25;96785.63;171314;28;940;-53
2021/12/07 00:26:54;;;;;;;;;;;;;;;29.84;21.01;96776.00;170595;29;810;-55
2021/12/07 00:26:59;;;;;;;;;;;;;;;29.85;21.19;96778.47;170596;29;886;-54
2021/12/07 00:27:04;;;;;;;;;;;;;;;29.87;21.13;96784.47;171066;28;980;-54
2021/12/07 00:27:09;;;;;;;;;;;;;;;29.87;21.01;96781.00;171260;28;1075;-54
2021/12/07 00:27:15;;;;;;;;;;;;;;;29.87;21.00;96788.97;171117;28;1028;-55
2021/12/07 00:27:20;;;;;;;;;;;;;;;29.87;21.13;96781.81;171433;28;956;-54
2021/12/07 00:27:25;;;;;;;;;;;;;;;29.87;21.11;96784.47;171101;28;1185;-55
2021/12/07 00:27:30;;;;;;;;;;;;;;;29.87;21.21;96786.31;171290;28;969;-54
2021/12/07 00:27:35;;;;;;;;;;;;;;;29.86;20.89;96779.31;171193;28;905;-55
2021/12/07 00:27:41;;;;;;;;;;;;;;;29.85;20.96;96786.47;171076;28;1153;-53
2021/12/07 00:27:46;;;;;;;;;;;;;;;29.86;20.92;96787.28;171358;28;798;-54
2021/12/07 00:27:51;;;;;;;;;;;;;;;29.83;21.07;96780.47;171237;28;1301;-54
2021/12/07 00:27:56;;;;;;;;;;;;;;;29.83;21.00;96790.28;171070;28;924;-54
2021/12/07 00:28:02;;;;;;;;;;;;;;;29.81;21.18;96776.34;170222;28;1931;-53
2021/12/07 00:28:07;;;;;;;;;;;;;;;29.85;21.19;96791.78;170937;28;826;-54
2021/12/07 00:28:13;;;;;;;;;;;;;;;29.86;20.89;96782.81;171158;28;987;-55
2021/12/07 00:28:20;;;;;;;;;;;;;;;29.87;21.23;96784.47;171351;28;926;-54
2021/12/07 00:28:25;;;;;;;;;;;;;;;29.87;20.87;96783.66;170596;28;1588;-54
2021/12/07 00:28:31;;;;;;;;;;;;;;;29.86;21.29;96787.28;171160;28;1547;-55
2021/12/07 00:28:36;;;;;;;;;;;;;;;29.86;21.09;96787.28;171560;28;925;-54
2021/12/07 00:28:41;;;;;;;;;;;;;;;29.86;20.99;96781.97;171672;28;893;-54
2021/12/07 00:28:48;;;;;;;;;;;;;;;29.88;20.84;96780.00;172007;28;1347;-55
2021/12/07 00:28:55;;;;;;;;;;;;;;;29.86;21.14;96784.63;171926;28;833;-54
2021/12/07 00:29:03;;;;;;;;;;;;;;;29.86;20.98;96781.97;171738;28;956;-55
2021/12/07 00:29:08;;;;;;;;;;;;;;;29.83;21.18;96782.31;171880;28;833;-54
2021/12/07 00:29:13;;;;;;;;;;;;;;;29.83;21.01;96782.31;171525;28;4250;-54
2021/12/07 00:29:19;;;;;;;;;;;;;;;29.86;21.00;96779.31;170987;28;1514;-55
2021/12/07 00:29:24;;;;;;;;;;;;;;;29.87;20.92;96781.00;171321;28;1202;-55
2021/12/07 00:29:30;;;;;;;;;;;;;;;29.88;21.05;96780.81;171998;28;822;-54
2021/12/07 00:29:35;;;;;;;;;;;;;;;29.89;21.16;96782.47;171128;28;1909;-54
2021/12/07 00:29:41;;;;;;;;;;;;;;;29.89;20.86;96782.47;171727;28;877;-54
2021/12/07 00:29:46;;;;;;;;;;;;;;;29.89;21.08;96777.16;171963;28;1162;-54
2021/12/07 00:29:51;;;;;;;;;;;;;;;29.84;21.07;96774.16;171283;28;881;-54
2021/12/07 00:29:56;;;;;;;;;;;;;;;29.85;21.21;96777.66;171213;28;874;-55
2021/12/07 00:30:05;;;;;;;;;;;;;;;29.81;21.09;96779.81;171801;28;1147;-55
2021/12/07 00:30:11;;;;;;;;;;;;;;;29.84;21.08;96781.31;171664;28;1159;-55
2021/12/07 00:30:17;;;;;;;;;;;;;;;29.85;20.84;96778.47;172648;28;867;-54
2021/12/07 00:30:27;;;;;;;;;;;;;;;29.86;20.99;96782.81;172253;28;1130;-55
2021/12/07 00:30:33;;;;;;;;;;;;;;;29.86;20.84;96779.31;172185;28;1582;-54
2021/12/07 00:30:39;;;;;;;;;;;;;;;29.87;21.14;96776.50;171866;28;1919;-54
2021/12/07 00:30:44;;;;;;;;;;;;;;;29.87;21.12;96779.16;172015;28;726;-55
2021/12/07 00:30:50;;;;;;;;;;;;;;;29.85;20.89;96775.81;171921;28;972;-55